sensor_id;sensor_type;location;lat;lon;timestamp;pressure;altitude;pressure_sealevel;temperature;humidity
79127;BME280;68528;48.814;8.904;2023-04-02T00:04:26;95613.78;;;5.12;86.59
79127;BME280;68528;48.814;8.904;2023-04-02T00:07:16;95621.06;;;5.08;86.34
79127;BME280;68528;48.814;8.904;2023-04-02T00:09:41;95613.09;;;5.15;85.56
79127;BME280;68528;48.814;8.904;2023-04-02T00:12:18;95614.78;;;5.19;85.59
79127;BME280;68528;48.814;8.904;2023-04-02T00:14:52;95624.41;;;5.17;86.02
79127;BME280;68528;48.814;8.904;2023-04-02T00:17:21;95623.75;;;5.08;86.65
79127;BME280;68528;48.814;8.904;2023-04-02T00:20:13;95620.09;;;5.16;86.45
79127;BME280;68528;48.814;8.904;2023-04-02T00:23:12;95626.41;;;5.20;86.36
79127;BME280;68528;48.814;8.904;2023-04-02T00:25:40;95625.97;;;5.18;85.84
79127;BME280;68528;48.814;8.904;2023-04-02T00:28:19;95629.66;;;5.25;85.73
79127;BME280;68528;48.814;8.904;2023-04-02T00:30:53;95626.59;;;5.27;84.80
79127;BME280;68528;48.814;8.904;2023-04-02T00:33:22;95637.53;;;5.15;86.71
79127;BME280;68528;48.814;8.904;2023-04-02T00:35:49;95645.03;;;5.06;87.16
79127;BME280;68528;48.814;8.904;2023-04-02T00:42:13;95649.34;;;5.07;87.36
79127;BME280;68528;48.814;8.904;2023-04-02T00:44:43;95641.47;;;5.17;86.95
79127;BME280;68528;48.814;8.904;2023-04-02T00:47:25;95644.38;;;5.24;85.93
79127;BME280;68528;48.814;8.904;2023-04-02T00:50:33;95638.34;;;5.31;85.38
79127;BME280;68528;48.814;8.904;2023-04-02T00:53:03;95626.59;;;5.27;85.77
79127;BME280;68528;48.814;8.904;2023-04-02T01:13:24;95648.50;;;5.34;86.46
79127;BME280;68528;48.814;8.904;2023-04-02T01:22:50;95659.72;;;5.48;85.95
79127;BME280;68528;48.814;8.904;2023-04-02T01:25:29;95658.94;;;5.47;85.66
79127;BME280;68528;48.814;8.904;2023-04-02T01:28:08;95664.28;;;5.44;85.69
79127;BME280;68528;48.814;8.904;2023-04-02T01:30:39;95662.69;;;5.43;85.37
79127;BME280;68528;48.814;8.904;2023-04-02T01:33:38;95665.22;;;5.36;86.18
79127;BME280;68528;48.814;8.904;2023-04-02T01:45:12;95669.50;;;5.37;86.55
79127;BME280;68528;48.814;8.904;2023-04-02T01:47:39;95668.84;;;5.40;86.43
79127;BME280;68528;48.814;8.904;2023-04-02T01:56:37;95681.63;;;5.55;85.53
79127;BME280;68528;48.814;8.904;2023-04-02T01:59:03;95676.00;;;5.48;85.53
79127;BME280;68528;48.814;8.904;2023-04-02T02:01:45;95684.06;;;5.60;84.99
79127;BME280;68528;48.814;8.904;2023-04-02T02:04:14;95684.19;;;5.64;85.14
79127;BME280;68528;48.814;8.904;2023-04-02T02:06:40;95675.25;;;5.63;84.77
79127;BME280;68528;48.814;8.904;2023-04-02T02:09:07;95683.22;;;5.72;84.55
79127;BME280;68528;48.814;8.904;2023-04-02T02:15:26;95689.69;;;5.67;84.57
79127;BME280;68528;48.814;8.904;2023-04-02T02:17:57;95680.91;;;5.58;84.53
79127;BME280;68528;48.814;8.904;2023-04-02T02:20:25;95695.94;;;5.68;84.48
79127;BME280;68528;48.814;8.904;2023-04-02T02:22:52;95687.06;;;5.55;85.22
79127;BME280;68528;48.814;8.904;2023-04-02T02:25:21;95694.94;;;5.60;85.22
79127;BME280;68528;48.814;8.904;2023-04-02T02:34:18;95692.22;;;5.60;85.03
79127;BME280;68528;48.814;8.904;2023-04-02T02:39:45;95698.09;;;5.62;85.07
79127;BME280;68528;48.814;8.904;2023-04-02T02:42:16;95702.66;;;5.58;85.56
79127;BME280;68528;48.814;8.904;2023-04-02T02:44:46;95714.22;;;5.55;85.37
79127;BME280;68528;48.814;8.904;2023-04-02T02:53:51;95701.09;;;5.57;85.63
79127;BME280;68528;48.814;8.904;2023-04-02T02:56:20;95707.91;;;5.51;85.92
79127;BME280;68528;48.814;8.904;2023-04-02T02:58:50;95717.28;;;5.53;85.56
79127;BME280;68528;48.814;8.904;2023-04-02T03:01:16;95721.06;;;5.49;86.24
79127;BME280;68528;48.814;8.904;2023-04-02T03:03:43;95719.22;;;5.53;86.23
79127;BME280;68528;48.814;8.904;2023-04-02T03:13:17;95722.38;;;5.55;85.66
79127;BME280;68528;48.814;8.904;2023-04-02T03:18:46;95728.94;;;5.54;85.99
79127;BME280;68528;48.814;8.904;2023-04-02T03:30:53;95739.44;;;5.55;85.75
79127;BME280;68528;48.814;8.904;2023-04-02T03:33:28;95738.31;;;5.56;85.90
79127;BME280;68528;48.814;8.904;2023-04-02T03:38:52;95750.34;;;5.71;85.37
79127;BME280;68528;48.814;8.904;2023-04-02T03:48:16;95760.09;;;5.72;84.81
79127;BME280;68528;48.814;8.904;2023-04-02T03:50:52;95755.84;;;5.75;84.83
79127;BME280;68528;48.814;8.904;2023-04-02T03:53:22;95770.25;;;5.75;85.33
79127;BME280;68528;48.814;8.904;2023-04-02T03:55:49;95773.84;;;5.79;85.09
79127;BME280;68528;48.814;8.904;2023-04-02T04:04:40;95779.88;;;5.73;85.46
79127;BME280;68528;48.814;8.904;2023-04-02T04:07:13;95783.53;;;5.65;86.52
79127;BME280;68528;48.814;8.904;2023-04-02T04:09:44;95780.47;;;5.66;85.38
79127;BME280;68528;48.814;8.904;2023-04-02T04:12:45;95791.09;;;5.71;85.63
79127;BME280;68528;48.814;8.904;2023-04-02T04:24:24;95793.38;;;5.69;86.20
79127;BME280;68528;48.814;8.904;2023-04-02T04:30:02;95795.28;;;5.69;85.98
79127;BME280;68528;48.814;8.904;2023-04-02T04:32:36;95814.16;;;5.77;85.81
79127;BME280;68528;48.814;8.904;2023-04-02T04:44:39;95815.69;;;5.63;87.41
79127;BME280;68528;48.814;8.904;2023-04-02T04:47:10;95817.72;;;5.66;87.08
79127;BME280;68528;48.814;8.904;2023-04-02T04:49:46;95826.19;;;5.64;86.75
79127;BME280;68528;48.814;8.904;2023-04-02T04:52:23;95824.63;;;5.63;86.53
79127;BME280;68528;48.814;8.904;2023-04-02T05:04:08;95837.50;;;5.66;86.06
79127;BME280;68528;48.814;8.904;2023-04-02T05:07:21;95842.94;;;5.66;85.86
79127;BME280;68528;48.814;8.904;2023-04-02T05:10:18;95854.00;;;5.73;85.90
79127;BME280;68528;48.814;8.904;2023-04-02T05:13:04;95849.91;;;5.79;85.58
79127;BME280;68528;48.814;8.904;2023-04-02T05:25:27;95875.06;;;5.76;85.56
79127;BME280;68528;48.814;8.904;2023-04-02T05:28:17;95875.31;;;5.71;85.98
79127;BME280;68528;48.814;8.904;2023-04-02T05:31:09;95871.56;;;5.76;85.57
79127;BME280;68528;48.814;8.904;2023-04-02T05:37:30;95876.16;;;5.87;84.99
79127;BME280;68528;48.814;8.904;2023-04-02T05:40:02;95888.19;;;5.86;85.31
79127;BME280;68528;48.814;8.904;2023-04-02T05:42:35;95875.72;;;5.85;85.09
79127;BME280;68528;48.814;8.904;2023-04-02T05:45:28;95885.47;;;5.86;84.96
79127;BME280;68528;48.814;8.904;2023-04-02T05:48:00;95891.34;;;5.88;84.77
79127;BME280;68528;48.814;8.904;2023-04-02T05:50:48;95890.19;;;5.89;84.64
79127;BME280;68528;48.814;8.904;2023-04-02T05:57:01;95894.00;;;6.00;83.86
79127;BME280;68528;48.814;8.904;2023-04-02T06:03:02;95902.59;;;6.02;83.71
79127;BME280;68528;48.814;8.904;2023-04-02T06:05:41;95894.72;;;5.97;84.07
79127;BME280;68528;48.814;8.904;2023-04-02T06:08:15;95918.22;;;6.05;83.76
79127;BME280;68528;48.814;8.904;2023-04-02T07:20:30;96006.03;;;7.08;80.12
79127;BME280;68528;48.814;8.904;2023-04-02T07:22:58;96009.56;;;7.08;80.49
79127;BME280;68528;48.814;8.904;2023-04-02T07:25:25;96006.47;;;7.10;80.89
79127;BME280;68528;48.814;8.904;2023-04-02T07:27:51;96011.22;;;7.13;80.62
79127;BME280;68528;48.814;8.904;2023-04-02T07:30:37;96013.22;;;7.16;80.61
79127;BME280;68528;48.814;8.904;2023-04-02T07:33:03;96023.34;;;7.31;80.16
79127;BME280;68528;48.814;8.904;2023-04-02T07:35:29;96026.50;;;7.33;80.02
79127;BME280;68528;48.814;8.904;2023-04-02T07:37:54;96031.25;;;7.36;80.03
79127;BME280;68528;48.814;8.904;2023-04-02T07:40:33;96027.75;;;7.51;79.31
79127;BME280;68528;48.814;8.904;2023-04-02T07:42:59;96028.44;;;7.48;79.41
79127;BME280;68528;48.814;8.904;2023-04-02T07:45:27;96019.13;;;7.49;79.32
79127;BME280;68528;48.814;8.904;2023-04-02T07:48:26;96030.97;;;7.57;78.16
79127;BME280;68528;48.814;8.904;2023-04-02T07:50:46;96036.66;;;7.67;78.51
79127;BME280;68528;48.814;8.904;2023-04-02T07:53:32;96042.84;;;7.64;79.31
79127;BME280;68528;48.814;8.904;2023-04-02T07:55:59;96053.03;;;7.67;79.26
79127;BME280;68528;48.814;8.904;2023-04-02T07:58:26;96060.06;;;7.68;79.04
79127;BME280;68528;48.814;8.904;2023-04-02T08:00:53;96062.25;;;7.63;79.26
79127;BME280;68528;48.814;8.904;2023-04-02T08:03:23;96069.31;;;7.64;79.05
79127;BME280;68528;48.814;8.904;2023-04-02T08:06:16;96071.72;;;7.69;78.72
79127;BME280;68528;48.814;8.904;2023-04-02T08:08:42;96072.47;;;7.66;78.57
79127;BME280;68528;48.814;8.904;2023-04-02T08:11:08;96067.09;;;7.69;78.70
79127;BME280;68528;48.814;8.904;2023-04-02T08:13:34;96072.63;;;7.73;78.47
79127;BME280;68528;48.814;8.904;2023-04-02T08:16:01;96082.88;;;7.79;78.63
79127;BME280;68528;48.814;8.904;2023-04-02T08:22:15;96093.78;;;7.95;77.41
79127;BME280;68528;48.814;8.904;2023-04-02T08:24:41;96092.13;;;7.90;77.66
79127;BME280;68528;48.814;8.904;2023-04-02T08:27:06;96086.78;;;7.78;77.78
79127;BME280;68528;48.814;8.904;2023-04-02T08:29:32;96100.47;;;7.98;78.02
79127;BME280;68528;48.814;8.904;2023-04-02T08:31:58;96098.34;;;8.07;78.17
79127;BME280;68528;48.814;8.904;2023-04-02T08:34:24;96103.09;;;8.10;77.47
79127;BME280;68528;48.814;8.904;2023-04-02T08:37:14;96100.16;;;8.18;75.43
79127;BME280;68528;48.814;8.904;2023-04-02T08:43:51;96117.03;;;8.39;76.02
79127;BME280;68528;48.814;8.904;2023-04-02T08:48:57;96127.91;;;8.55;75.43
79127;BME280;68528;48.814;8.904;2023-04-02T08:51:31;96119.19;;;8.49;75.00
79127;BME280;68528;48.814;8.904;2023-04-02T08:54:36;96115.22;;;8.47;75.45
79127;BME280;68528;48.814;8.904;2023-04-02T09:00:50;96131.03;;;8.38;75.20
79127;BME280;68528;48.814;8.904;2023-04-02T09:03:27;96140.91;;;8.27;75.40
79127;BME280;68528;48.814;8.904;2023-04-02T09:05:56;96133.41;;;8.39;75.43
79127;BME280;68528;48.814;8.904;2023-04-02T09:08:24;96132.94;;;8.53;74.36
79127;BME280;68528;48.814;8.904;2023-04-02T09:13:26;96152.13;;;8.76;74.34
79127;BME280;68528;48.814;8.904;2023-04-02T09:16:18;96154.28;;;8.86;73.26
79127;BME280;68528;48.814;8.904;2023-04-02T09:18:48;96145.88;;;8.75;72.89
79127;BME280;68528;48.814;8.904;2023-04-02T09:23:46;96161.84;;;8.92;74.49
79127;BME280;68528;48.814;8.904;2023-04-02T09:26:25;96171.31;;;8.98;73.62
79127;BME280;68528;48.814;8.904;2023-04-02T09:29:40;96170.22;;;8.84;71.50
79127;BME280;68528;48.814;8.904;2023-04-02T09:36:37;96172.47;;;8.78;71.80
79127;BME280;68528;48.814;8.904;2023-04-02T09:39:05;96183.84;;;8.99;73.46
79127;BME280;68528;48.814;8.904;2023-04-02T09:41:40;96178.44;;;9.22;71.38
79127;BME280;68528;48.814;8.904;2023-04-02T09:44:27;96192.47;;;9.01;71.92
79127;BME280;68528;48.814;8.904;2023-04-02T09:46:58;96198.19;;;9.15;72.26
79127;BME280;68528;48.814;8.904;2023-04-02T09:53:17;96204.50;;;8.81;73.29
79127;BME280;68528;48.814;8.904;2023-04-02T09:55:45;96203.78;;;8.84;73.01
79127;BME280;68528;48.814;8.904;2023-04-02T09:58:30;96198.34;;;8.84;74.40
79127;BME280;68528;48.814;8.904;2023-04-02T10:01:01;96203.88;;;8.88;74.25
79127;BME280;68528;48.814;8.904;2023-04-02T10:03:28;96196.84;;;8.87;74.24
79127;BME280;68528;48.814;8.904;2023-04-02T10:08:53;96213.16;;;9.02;72.61
79127;BME280;68528;48.814;8.904;2023-04-02T10:15:21;96229.72;;;8.94;73.59
79127;BME280;68528;48.814;8.904;2023-04-02T10:18:04;96223.19;;;8.98;73.16
79127;BME280;68528;48.814;8.904;2023-04-02T10:20:31;96227.81;;;8.94;73.47
79127;BME280;68528;48.814;8.904;2023-04-02T10:22:58;96234.94;;;9.18;71.91
79127;BME280;68528;48.814;8.904;2023-04-02T10:25:26;96235.16;;;9.09;73.37
79127;BME280;68528;48.814;8.904;2023-04-02T10:37:00;96239.66;;;8.83;71.94
79127;BME280;68528;48.814;8.904;2023-04-02T10:39:44;96245.34;;;8.93;72.06
79127;BME280;68528;48.814;8.904;2023-04-02T10:42:32;96248.75;;;8.71;72.22
79127;BME280;68528;48.814;8.904;2023-04-02T10:45:45;96244.47;;;8.89;71.58
79127;BME280;68528;48.814;8.904;2023-04-02T10:55:33;96271.78;;;9.43;70.36
79127;BME280;68528;48.814;8.904;2023-04-02T10:58:29;96259.75;;;9.47;68.99
79127;BME280;68528;48.814;8.904;2023-04-02T11:00:59;96264.38;;;9.43;70.23
79127;BME280;68528;48.814;8.904;2023-04-02T11:08:04;96270.38;;;9.72;69.57
79127;BME280;68528;48.814;8.904;2023-04-02T11:10:36;96271.72;;;9.59;69.75
79127;BME280;68528;48.814;8.904;2023-04-02T11:13:10;96276.59;;;9.69;69.92
79127;BME280;68528;48.814;8.904;2023-04-02T11:15:37;96276.69;;;9.76;69.83
79127;BME280;68528;48.814;8.904;2023-04-02T11:18:03;96281.28;;;9.91;68.51
79127;BME280;68528;48.814;8.904;2023-04-02T11:20:56;96283.03;;;9.99;69.07
79127;BME280;68528;48.814;8.904;2023-04-02T11:23:27;96279.56;;;10.02;70.22
79127;BME280;68528;48.814;8.904;2023-04-02T11:26:33;96284.72;;;10.07;69.33
79127;BME280;68528;48.814;8.904;2023-04-02T11:29:26;96286.31;;;10.08;70.39
79127;BME280;68528;48.814;8.904;2023-04-02T11:53:45;96311.41;;;10.55;67.20
79127;BME280;68528;48.814;8.904;2023-04-02T11:59:03;96312.03;;;10.45;67.10
79127;BME280;68528;48.814;8.904;2023-04-02T12:05:23;96313.97;;;10.22;68.51
79127;BME280;68528;48.814;8.904;2023-04-02T12:08:02;96322.19;;;10.22;68.80
79127;BME280;68528;48.814;8.904;2023-04-02T12:10:57;96325.22;;;10.17;68.89
79127;BME280;68528;48.814;8.904;2023-04-02T12:16:05;96318.44;;;10.11;67.45
79127;BME280;68528;48.814;8.904;2023-04-02T12:18:54;96321.88;;;10.08;66.85
79127;BME280;68528;48.814;8.904;2023-04-02T12:22:32;96329.53;;;9.99;67.48
79127;BME280;68528;48.814;8.904;2023-04-02T12:28:48;96330.03;;;9.47;67.98
79127;BME280;68528;48.814;8.904;2023-04-02T12:31:15;96345.00;;;9.53;68.15
79127;BME280;68528;48.814;8.904;2023-04-02T12:33:42;96340.06;;;9.59;68.56
79127;BME280;68528;48.814;8.904;2023-04-02T12:37:02;96352.41;;;9.72;68.20
79127;BME280;68528;48.814;8.904;2023-04-02T12:39:55;96347.69;;;9.69;68.14
79127;BME280;68528;48.814;8.904;2023-04-02T12:42:28;96356.53;;;9.62;70.21
79127;BME280;68528;48.814;8.904;2023-04-02T12:44:54;96355.00;;;9.65;69.63
79127;BME280;68528;48.814;8.904;2023-04-02T12:47:20;96354.59;;;9.63;69.04
79127;BME280;68528;48.814;8.904;2023-04-02T12:49:45;96353.16;;;9.69;69.92
79127;BME280;68528;48.814;8.904;2023-04-02T12:52:17;96357.53;;;9.73;70.56
79127;BME280;68528;48.814;8.904;2023-04-02T12:55:14;96360.28;;;9.73;70.99
79127;BME280;68528;48.814;8.904;2023-04-02T12:58:25;96361.94;;;9.78;71.24
79127;BME280;68528;48.814;8.904;2023-04-02T13:00:50;96369.19;;;9.70;70.48
79127;BME280;68528;48.814;8.904;2023-04-02T13:03:19;96367.09;;;9.64;70.91
79127;BME280;68528;48.814;8.904;2023-04-02T13:05:54;96378.72;;;9.41;70.74
79127;BME280;68528;48.814;8.904;2023-04-02T13:08:27;96372.81;;;9.39;69.91
79127;BME280;68528;48.814;8.904;2023-04-02T13:11:03;96374.16;;;9.30;69.89
79127;BME280;68528;48.814;8.904;2023-04-02T13:13:33;96379.44;;;9.38;70.14
79127;BME280;68528;48.814;8.904;2023-04-02T13:16:24;96382.34;;;9.30;70.50
79127;BME280;68528;48.814;8.904;2023-04-02T13:18:50;96377.09;;;9.21;70.17
79127;BME280;68528;48.814;8.904;2023-04-02T13:21:26;96379.22;;;9.12;70.39
79127;BME280;68528;48.814;8.904;2023-04-02T13:23:52;96372.53;;;9.10;70.86
79127;BME280;68528;48.814;8.904;2023-04-02T13:26:22;96373.75;;;9.12;70.81
79127;BME280;68528;48.814;8.904;2023-04-02T13:29:19;96382.31;;;9.11;71.42
79127;BME280;68528;48.814;8.904;2023-04-02T13:38:28;96409.88;;;8.16;80.28
79127;BME280;68528;48.814;8.904;2023-04-02T13:40:54;96407.66;;;8.06;81.15
79127;BME280;68528;48.814;8.904;2023-04-02T13:43:19;96405.59;;;8.03;81.70
79127;BME280;68528;48.814;8.904;2023-04-02T13:45:49;96407.44;;;7.99;81.64
79127;BME280;68528;48.814;8.904;2023-04-02T13:48:16;96414.09;;;7.85;82.24
79127;BME280;68528;48.814;8.904;2023-04-02T13:54:18;96422.28;;;7.73;82.62
79127;BME280;68528;48.814;8.904;2023-04-02T13:56:44;96418.13;;;7.64;83.06
79127;BME280;68528;48.814;8.904;2023-04-02T13:59:11;96428.81;;;7.57;83.20
79127;BME280;68528;48.814;8.904;2023-04-02T14:01:36;96423.72;;;7.55;82.87
79127;BME280;68528;48.814;8.904;2023-04-02T14:04:03;96437.13;;;7.48;83.33
79127;BME280;68528;48.814;8.904;2023-04-02T14:20:17;96461.91;;;7.07;84.82
79127;BME280;68528;48.814;8.904;2023-04-02T14:35:14;96470.72;;;6.80;86.27
79127;BME280;68528;48.814;8.904;2023-04-02T14:43:34;96477.94;;;6.64;87.03
79127;BME280;68528;48.814;8.904;2023-04-02T14:50:22;96492.63;;;6.51;85.61
79127;BME280;68528;48.814;8.904;2023-04-02T14:52:55;96489.91;;;6.51;85.69
79127;BME280;68528;48.814;8.904;2023-04-02T14:55:40;96488.59;;;6.57;85.58
79127;BME280;68528;48.814;8.904;2023-04-02T14:58:17;96503.06;;;6.49;86.05
79127;BME280;68528;48.814;8.904;2023-04-02T15:00:54;96495.13;;;6.44;86.70
79127;BME280;68528;48.814;8.904;2023-04-02T15:13:16;96498.47;;;6.28;87.54
79127;BME280;68528;48.814;8.904;2023-04-02T15:15:59;96501.19;;;6.28;87.82
79127;BME280;68528;48.814;8.904;2023-04-02T15:18:29;96508.66;;;6.31;89.13
79127;BME280;68528;48.814;8.904;2023-04-02T15:31:10;96519.84;;;5.97;89.63
79127;BME280;68528;48.814;8.904;2023-04-02T15:33:44;96525.53;;;6.04;90.13
79127;BME280;68528;48.814;8.904;2023-04-02T15:48:56;96546.34;;;5.71;90.14
79127;BME280;68528;48.814;8.904;2023-04-02T15:52:18;96547.97;;;5.72;90.83
79127;BME280;68528;48.814;8.904;2023-04-02T15:55:36;96550.00;;;5.75;88.88
79127;BME280;68528;48.814;8.904;2023-04-02T16:05:09;96576.47;;;5.57;88.72
79127;BME280;68528;48.814;8.904;2023-04-02T16:11:02;96581.78;;;5.54;88.23
79127;BME280;68528;48.814;8.904;2023-04-02T16:13:32;96577.28;;;5.58;88.91
79127;BME280;68528;48.814;8.904;2023-04-02T16:16:30;96589.91;;;5.54;88.13
79127;BME280;68528;48.814;8.904;2023-04-02T16:19:31;96593.13;;;5.47;88.23
79127;BME280;68528;48.814;8.904;2023-04-02T16:22:17;96592.50;;;5.50;88.87
79127;BME280;68528;48.814;8.904;2023-04-02T16:24:49;96599.75;;;5.38;87.98
79127;BME280;68528;48.814;8.904;2023-04-02T16:27:39;96594.13;;;5.43;88.39
79127;BME280;68528;48.814;8.904;2023-04-02T16:42:25;96612.88;;;5.27;87.65
79127;BME280;68528;48.814;8.904;2023-04-02T16:45:15;96620.59;;;5.17;85.06
79127;BME280;68528;48.814;8.904;2023-04-02T16:57:37;96639.97;;;4.98;85.50
79127;BME280;68528;48.814;8.904;2023-04-02T17:01:14;96643.63;;;4.94;86.04
79127;BME280;68528;48.814;8.904;2023-04-02T17:03:55;96649.06;;;4.94;86.80
79127;BME280;68528;48.814;8.904;2023-04-02T17:06:38;96653.19;;;5.00;85.50
79127;BME280;68528;48.814;8.904;2023-04-02T17:09:07;96666.28;;;5.06;86.17
79127;BME280;68528;48.814;8.904;2023-04-02T17:12:46;96671.06;;;5.01;84.21
79127;BME280;68528;48.814;8.904;2023-04-02T17:18:52;96679.88;;;4.81;84.76
79127;BME280;68528;48.814;8.904;2023-04-02T17:21:27;96675.41;;;4.76;85.19
79127;BME280;68528;48.814;8.904;2023-04-02T17:23:54;96681.16;;;4.74;85.35
79127;BME280;68528;48.814;8.904;2023-04-02T17:26:24;96692.81;;;4.66;84.92
79127;BME280;68528;48.814;8.904;2023-04-02T17:28:51;96695.66;;;4.61;85.49
79127;BME280;68528;48.814;8.904;2023-04-02T17:40:30;96714.03;;;4.47;84.76
79127;BME280;68528;48.814;8.904;2023-04-02T17:46:17;96719.56;;;4.34;85.26
79127;BME280;68528;48.814;8.904;2023-04-02T17:49:01;96723.69;;;4.31;83.60
79127;BME280;68528;48.814;8.904;2023-04-02T17:54:48;96744.91;;;4.29;84.29
79127;BME280;68528;48.814;8.904;2023-04-02T17:57:29;96753.38;;;4.28;84.21
79127;BME280;68528;48.814;8.904;2023-04-02T18:00:08;96767.22;;;4.18;84.15
79127;BME280;68528;48.814;8.904;2023-04-02T18:03:05;96765.78;;;4.20;83.57
79127;BME280;68528;48.814;8.904;2023-04-02T18:05:48;96773.09;;;4.11;84.02
79127;BME280;68528;48.814;8.904;2023-04-02T18:18:55;96791.34;;;3.97;83.57
79127;BME280;68528;48.814;8.904;2023-04-02T18:21:58;96798.50;;;3.93;82.01
79127;BME280;68528;48.814;8.904;2023-04-02T18:31:10;96818.75;;;3.95;82.65
79127;BME280;68528;48.814;8.904;2023-04-02T18:39:45;96836.97;;;3.73;82.14
79127;BME280;68528;48.814;8.904;2023-04-02T18:42:34;96838.69;;;3.69;82.51
79127;BME280;68528;48.814;8.904;2023-04-02T18:45:41;96853.09;;;3.56;82.20
79127;BME280;68528;48.814;8.904;2023-04-02T18:51:43;96851.41;;;3.38;82.46
79127;BME280;68528;48.814;8.904;2023-04-02T18:54:24;96852.00;;;3.35;83.38
79127;BME280;68528;48.814;8.904;2023-04-02T18:56:51;96860.22;;;3.30;82.94
79127;BME280;68528;48.814;8.904;2023-04-02T19:02:29;96882.44;;;3.18;83.01
79127;BME280;68528;48.814;8.904;2023-04-02T19:05:13;96886.47;;;3.07;81.71
79127;BME280;68528;48.814;8.904;2023-04-02T19:07:53;96897.19;;;2.98;82.18
79127;BME280;68528;48.814;8.904;2023-04-02T19:10:32;96907.22;;;2.98;82.53
79127;BME280;68528;48.814;8.904;2023-04-02T19:13:51;96915.84;;;2.86;84.30
79127;BME280;68528;48.814;8.904;2023-04-02T19:19:16;96919.38;;;2.73;82.91
79127;BME280;68528;48.814;8.904;2023-04-02T19:22:20;96927.69;;;2.63;83.31
79127;BME280;68528;48.814;8.904;2023-04-02T19:25:17;96932.69;;;2.56;82.59
79127;BME280;68528;48.814;8.904;2023-04-02T19:28:06;96945.41;;;2.56;83.07
79127;BME280;68528;48.814;8.904;2023-04-02T19:30:43;96933.91;;;2.50;80.50
79127;BME280;68528;48.814;8.904;2023-04-02T19:33:41;96950.88;;;2.37;80.50
79127;BME280;68528;48.814;8.904;2023-04-02T19:46:00;96968.66;;;2.11;79.59
79127;BME280;68528;48.814;8.904;2023-04-02T19:48:37;96970.25;;;2.12;79.20
79127;BME280;68528;48.814;8.904;2023-04-02T19:51:06;96984.66;;;2.07;79.12
79127;BME280;68528;48.814;8.904;2023-04-02T19:53:31;96992.56;;;2.04;79.55
79127;BME280;68528;48.814;8.904;2023-04-02T19:55:57;96991.47;;;2.05;79.46
79127;BME280;68528;48.814;8.904;2023-04-02T20:02:21;96993.06;;;2.06;79.92
79127;BME280;68528;48.814;8.904;2023-04-02T20:04:52;96996.25;;;2.08;79.42
79127;BME280;68528;48.814;8.904;2023-04-02T20:07:18;97000.09;;;2.07;79.17
79127;BME280;68528;48.814;8.904;2023-04-02T20:09:43;96989.84;;;2.04;78.89
79127;BME280;68528;48.814;8.904;2023-04-02T20:12:09;97002.53;;;2.03;79.16
79127;BME280;68528;48.814;8.904;2023-04-02T20:14:35;97014.75;;;2.01;78.75
79127;BME280;68528;48.814;8.904;2023-04-02T20:17:01;97021.25;;;2.00;78.96
79127;BME280;68528;48.814;8.904;2023-04-02T20:19:32;97023.44;;;1.98;77.92
79127;BME280;68528;48.814;8.904;2023-04-02T20:21:59;97028.75;;;2.03;78.57
79127;BME280;68528;48.814;8.904;2023-04-02T20:24:25;97026.81;;;1.90;77.17
79127;BME280;68528;48.814;8.904;2023-04-02T20:26:50;97032.78;;;1.87;77.27
79127;BME280;68528;48.814;8.904;2023-04-02T20:29:16;97031.34;;;1.76;77.03
79127;BME280;68528;48.814;8.904;2023-04-02T20:31:41;97033.53;;;1.74;76.22
79127;BME280;68528;48.814;8.904;2023-04-02T20:34:08;97036.81;;;1.71;76.54
79127;BME280;68528;48.814;8.904;2023-04-02T20:36:43;97035.16;;;1.75;76.86
79127;BME280;68528;48.814;8.904;2023-04-02T20:39:10;97054.09;;;1.70;76.85
79127;BME280;68528;48.814;8.904;2023-04-02T20:41:42;97043.81;;;1.72;76.03
79127;BME280;68528;48.814;8.904;2023-04-02T20:44:08;97054.09;;;1.70;76.22
79127;BME280;68528;48.814;8.904;2023-04-02T20:46:34;97050.69;;;1.64;76.40
79127;BME280;68528;48.814;8.904;2023-04-02T20:48:59;97059.09;;;1.63;77.06
79127;BME280;68528;48.814;8.904;2023-04-02T20:51:27;97061.78;;;1.63;77.07
79127;BME280;68528;48.814;8.904;2023-04-02T20:53:52;97069.50;;;1.69;76.01
79127;BME280;68528;48.814;8.904;2023-04-02T20:56:19;97069.28;;;1.66;76.46
79127;BME280;68528;48.814;8.904;2023-04-02T20:58:48;97068.72;;;1.69;76.34
79127;BME280;68528;48.814;8.904;2023-04-02T21:01:23;97071.31;;;1.74;76.44
79127;BME280;68528;48.814;8.904;2023-04-02T21:04:03;97068.22;;;1.67;76.38
79127;BME280;68528;48.814;8.904;2023-04-02T21:06:31;97067.19;;;1.63;75.58
79127;BME280;68528;48.814;8.904;2023-04-02T21:09:00;97075.28;;;1.63;75.89
79127;BME280;68528;48.814;8.904;2023-04-02T21:11:59;97079.34;;;1.60;75.42
79127;BME280;68528;48.814;8.904;2023-04-02T21:14:50;97081.81;;;1.56;76.65
79127;BME280;68528;48.814;8.904;2023-04-02T21:17:21;97076.41;;;1.56;76.22
79127;BME280;68528;48.814;8.904;2023-04-02T21:19:47;97083.66;;;1.61;74.93
79127;BME280;68528;48.814;8.904;2023-04-02T21:22:12;97078.59;;;1.54;75.94
79127;BME280;68528;48.814;8.904;2023-04-02T21:24:40;97086.44;;;1.56;74.78
79127;BME280;68528;48.814;8.904;2023-04-02T21:27:06;97086.44;;;1.56;75.36
79127;BME280;68528;48.814;8.904;2023-04-02T21:29:31;97078.91;;;1.53;74.71
79127;BME280;68528;48.814;8.904;2023-04-02T21:31:56;97097.00;;;1.52;74.24
79127;BME280;68528;48.814;8.904;2023-04-02T21:34:22;97091.59;;;1.52;74.56
79127;BME280;68528;48.814;8.904;2023-04-02T21:36:49;97089.41;;;1.54;74.82
79127;BME280;68528;48.814;8.904;2023-04-02T21:39:22;97101.34;;;1.48;75.16
79127;BME280;68528;48.814;8.904;2023-04-02T21:41:50;97101.34;;;1.48;74.60
79127;BME280;68528;48.814;8.904;2023-04-02T21:44:18;97102.13;;;1.54;74.14
79127;BME280;68528;48.814;8.904;2023-04-02T21:46:48;97099.00;;;1.42;73.61
79127;BME280;68528;48.814;8.904;2023-04-02T21:49:16;97106.31;;;1.41;73.93
79127;BME280;68528;48.814;8.904;2023-04-02T21:52:36;97102.81;;;1.41;73.37
79127;BME280;68528;48.814;8.904;2023-04-02T21:55:21;97098.56;;;1.35;73.62
79127;BME280;68528;48.814;8.904;2023-04-02T21:57:48;97108.22;;;1.41;73.05
79127;BME280;68528;48.814;8.904;2023-04-02T22:00:14;97112.28;;;1.38;73.91
79127;BME280;68528;48.814;8.904;2023-04-02T22:02:39;97115.78;;;1.39;73.19
79127;BME280;68528;48.814;8.904;2023-04-02T22:05:05;97119.81;;;1.41;73.01
79127;BME280;68528;48.814;8.904;2023-04-02T22:07:31;97112.06;;;1.35;73.04